Date,TemperatureHighF,TemperatureAvgF,TemperatureLowF,DewpointHighF,DewpointAvgF,DewpointLowF,HumidityHigh,HumidityAvg,HumidityLow,PressureMaxIn,PressureMinIn,WindSpeedMaxMPH,WindSpeedAvgMPH,GustSpeedMaxMPH,PrecipitationSumIn
2013-5-1,69.3,51.4,34.3,42.8,32.7,21.2,93,56,18,30.55,30.41,8,2,8,0.00
2013-5-2,71.1,56.1,41.4,42.1,38.9,36.3,84,56,29,30.52,30.32,13,2,13,0.00
2013-5-3,74.1,58.1,42.8,48.9,44.1,39.4,89,62,32,30.36,30.18,10,2,10,0.00
2013-5-4,79.9,64.7,49.6,49.5,42.9,25.5,83,50,15,30.20,29.96,14,2,14,0.00
2013-5-5,86.4,68.3,50.0,50.5,42.8,27.7,77,46,14,29.96,29.72,11,2,11,0.00
2013-5-6,90.0,71.0,51.6,50.5,44.1,28.2,78,44,12,29.82,29.70,9,1,9,0.00
2013-5-7,79.3,63.1,54.5,53.6,50.5,46.9,82,65,37,29.97,29.78,15,3,15,0.00
2013-5-8,75.9,59.8,53.2,52.0,50.0,47.1,87,71,38,30.12,29.96,12,3,12,0.00
2013-5-9,74.8,60.1,48.9,55.6,50.6,46.0,95,73,39,30.20,30.07,8,1,8,0.00
2013-5-10,87.8,66.8,48.7,56.3,50.6,45.9,93,60,26,30.18,30.06,8,1,8,0.00
2013-5-11,91.4,69.5,56.3,53.4,49.1,44.2,78,51,23,30.14,29.94,10,2,10,0.00
2013-5-12,78.3,66.0,59.9,58.8,55.7,50.4,89,71,45,30.06,29.97,14,4,14,0.06
2013-5-13,68.0,59.3,50.5,59.4,50.9,40.3,89,74,55,30.16,29.89,31,6,31,0.13
2013-5-14,74.5,58.2,49.1,46.4,42.4,32.5,80,59,23,30.20,30.07,11,3,11,0.00
2013-5-15,73.8,57.3,46.6,51.3,46.4,39.9,88,70,34,30.10,29.99,11,2,11,0.01
2013-5-16,77.7,62.4,54.1,56.5,50.9,43.0,91,69,30,29.99,29.82,8,2,8,0.01
2013-5-17,69.1,60.9,55.0,52.7,48.8,44.6,82,66,44,30.03,29.91,15,5,15,0.00
2013-5-18,69.3,59.0,52.3,49.1,46.8,43.7,81,65,45,30.24,30.03,11,2,11,0.00
2013-5-19,68.0,58.6,51.4,51.1,48.0,45.3,82,69,47,30.37,30.24,8,2,8,0.00
2013-5-20,77.0,58.6,45.5,51.8,47.4,43.0,93,69,34,30.33,29.87,8,2,8,0.00
2013-5-21,62.1,52.2,46.9,50.2,46.4,44.2,94,81,57,29.88,29.74,15,3,15,0.34
2013-5-22,59.9,50.9,46.6,50.0,45.4,43.5,91,82,65,29.91,29.81,11,3,11,0.06
2013-5-23,63.7,52.6,45.9,50.2,44.9,41.5,93,76,49,29.99,29.89,15,2,15,0.05
2013-5-24,72.3,57.6,45.9,51.6,46.3,39.7,95,69,34,30.02,29.94,11,3,11,0.02
2013-5-25,73.9,59.5,52.3,49.3,46.7,41.9,84,65,34,30.01,29.93,11,3,11,0.00
2013-5-26,71.2,58.7,51.1,56.1,50.9,47.5,92,77,51,29.96,29.91,11,2,11,0.06
2013-5-27,63.3,57.3,51.4,56.8,53.0,48.9,93,86,74,29.94,29.68,11,2,11,0.19
2013-5-28,73.2,58.7,52.7,52.5,49.7,46.2,91,73,44,29.85,29.73,17,4,17,0.00
2013-5-29,68.5,55.6,50.2,52.3,49.1,47.3,93,80,50,29.94,29.65,13,2,13,0.08
2013-5-30,67.5,57.8,50.0,49.1,46.8,44.6,85,68,47,30.22,29.93,16,6,16,0.00
2013-5-31,74.1,60.5,51.8,52.5,45.7,38.7,84,61,32,30.32,30.21,9,2,9,0.00